Terminal Aerodrome Forecast
Issued by NWS

Home | Current Version | Previous Version | Text Only | Print | Product List | Glossary On
Versions: 1 2 3 4 5 6 7 8 9 10 11 12 13 14 15 16 17 18 19 20 21
164
FTUS43 KGRR 282355
TAFMKG
TAF
KMKG 282355Z 2900/2924 19010KT P6SM BKN250
     FM290600 19010KT P6SM VCSH BKN070
     FM291400 22012G22KT P6SM VCSH BKN050=

USA.gov is the U.S. government's official web portal to all federal, state and local government web resources and services.